Turtle Lake, Louisiana
Current Conditions -  °F | °C
As of 6:15 AM on Monday 24 Nov 2014 (Local Time) from KHEZ Reporting Station
Broken Clouds Broken Clouds  
Wind Chill: 54°   Ceiling: 1900
Heat Index: 54°   Visibility: 10mi
Dew Point: 46°   Wind: 17mph
Humidity: 77%   Direction: 310°NW
Pressure: 29.84"   Gusts: 23mph
Location:  31.6488°N, 91.6098°W
Report Text: KHEZ 241215Z AUTO 31015G20KT 10SM BKN019 12/08 A2984 RMK AO1
Loading
Personal Weather Stations






























Interactive Weather Map New forecast layout! Learn more

10-Day Weather Forecast

Advertisements
Track Severe Weather on mobile